Weather, Runways
& NOTAMs

CYYZ - Toronto-Lester B. Pearson International
CYYZ 070700Z 28004KT 15SM SKC M10/M14 A3027 RMK SLP262
Suggested Runways: Departures: 23, Arrivals: 24R
CYOW - Ottawa Macdonald-Cartier International
CYOW 070700Z 28007KT 15SM BKN050 M10/M16 A3023 RMK SC7 SLP246
Suggested Runway: 25
CYTZ - Billy Bishop Toronto City
CYTZ 070700Z AUTO 33006KT 9SM CLR M06/M11 A3029 RMK SLP263
Suggested Runway: 26
CYXU - London International
CYXU 070700Z 36002KT 15SM FEW130 M11/M12 A3027 RMK AC1 SLP269
Suggested Runway: 33
CYHM - John C. Munro Hamilton International
CYHM 070700Z 34007KT 15SM FEW020 M09/M13 A3025 RMK SC1 SC TR SLP259
Suggested Runway: 30
CYKF - Region of Waterloo International
CYKF 070700Z AUTO 32004KT 9SM CLR M11/M13 A3023 RMK SLP262
Suggested Runway: 26
CYAM - Sault Ste. Marie
CYAM 070700Z 00000KT 20SM FEW250 M20/M22 A3038 RMK CI1 CI TR FROIN SLP308
Suggested Runway: 30
CYTR - Canadian Forces Base Trenton
CYTR 070700Z AUTO 01004KT 9SM CLR M09/M15 A3029 RMK SLP263
Suggested Runway: 06
CYOO - Toronto/Oshawa Executive
CYOO 070700Z AUTO 34004KT 9SM CLR M10/M14 A3027 RMK SLP262
Suggested Runway: 30

NOTAMs